Raytown, Texas
Current Conditions -  °F | °C
As of 4:55 PM on Tuesday 27 Jan 2015 (Local Time) from KSWW Reporting Station
Clear Clear  
Wind Chill: 74°   Ceiling: Unl
Heat Index: 74°   Visibility: 10mi
Dew Point: 32°   Wind: 7mph
Humidity: 22%   Direction: 240°WSW
Pressure: 30.17"   Gusts: NA
Location:  32.8661°N, 100.503°W
Report Text: KSWW 272255Z AUTO 24006KT 10SM CLR 23/00 A3017 RMK AO2 T02320000
Loading
Personal Weather Stations






























Interactive Weather Map New forecast layout! Learn more

10-Day Weather Forecast

Advertisements
Track Severe Weather on mobile